sensor_id;sensor_type;location;lat;lon;timestamp;temperature;humidity
20929;DHT22;21895;47.072;15.132;2023-09-30T00:02:26;12.10;99.90
20929;DHT22;21895;47.072;15.132;2023-09-30T00:04:53;12.00;99.90
20929;DHT22;21895;47.072;15.132;2023-09-30T00:07:20;12.00;99.90
20929;DHT22;21895;47.072;15.132;2023-09-30T00:09:46;11.80;99.90
20929;DHT22;21895;47.072;15.132;2023-09-30T00:12:13;11.80;99.90
20929;DHT22;21895;47.072;15.132;2023-09-30T00:14:40;11.90;99.90
20929;DHT22;21895;47.072;15.132;2023-09-30T00:17:06;12.00;99.90
20929;DHT22;21895;47.072;15.132;2023-09-30T00:19:35;12.10;99.90
20929;DHT22;21895;47.072;15.132;2023-09-30T00:22:01;12.30;99.90
20929;DHT22;21895;47.072;15.132;2023-09-30T00:24:28;12.30;99.90
20929;DHT22;21895;47.072;15.132;2023-09-30T00:26:55;12.10;99.90
20929;DHT22;21895;47.072;15.132;2023-09-30T00:29:22;11.90;99.90
20929;DHT22;21895;47.072;15.132;2023-09-30T00:31:48;11.90;99.90
20929;DHT22;21895;47.072;15.132;2023-09-30T00:34:15;11.80;99.90
20929;DHT22;21895;47.072;15.132;2023-09-30T00:36:42;11.90;99.90
20929;DHT22;21895;47.072;15.132;2023-09-30T00:39:08;11.90;99.90
20929;DHT22;21895;47.072;15.132;2023-09-30T00:41:35;11.90;99.90
20929;DHT22;21895;47.072;15.132;2023-09-30T00:44:04;11.90;99.90
20929;DHT22;21895;47.072;15.132;2023-09-30T00:46:32;11.70;99.90
20929;DHT22;21895;47.072;15.132;2023-09-30T00:49:01;11.60;99.90
20929;DHT22;21895;47.072;15.132;2023-09-30T00:51:29;11.60;99.90
20929;DHT22;21895;47.072;15.132;2023-09-30T00:53:59;11.50;99.90
20929;DHT22;21895;47.072;15.132;2023-09-30T00:56:29;11.60;99.90
20929;DHT22;21895;47.072;15.132;2023-09-30T00:58:56;11.70;99.90
20929;DHT22;21895;47.072;15.132;2023-09-30T01:01:24;11.60;99.90
20929;DHT22;21895;47.072;15.132;2023-09-30T01:03:51;11.60;99.90
20929;DHT22;21895;47.072;15.132;2023-09-30T01:06:18;11.50;99.90
20929;DHT22;21895;47.072;15.132;2023-09-30T01:08:45;11.50;99.90
20929;DHT22;21895;47.072;15.132;2023-09-30T01:11:13;11.40;99.90
20929;DHT22;21895;47.072;15.132;2023-09-30T01:13:40;11.40;99.90
20929;DHT22;21895;47.072;15.132;2023-09-30T01:16:10;11.20;99.90
20929;DHT22;21895;47.072;15.132;2023-09-30T01:18:38;11.10;99.90
20929;DHT22;21895;47.072;15.132;2023-09-30T01:21:09;11.20;99.90
20929;DHT22;21895;47.072;15.132;2023-09-30T01:23:36;11.10;99.90
20929;DHT22;21895;47.072;15.132;2023-09-30T01:26:03;11.10;99.90
20929;DHT22;21895;47.072;15.132;2023-09-30T01:28:35;11.20;99.90
20929;DHT22;21895;47.072;15.132;2023-09-30T01:31:02;11.20;99.90
20929;DHT22;21895;47.072;15.132;2023-09-30T01:33:29;11.30;99.90
20929;DHT22;21895;47.072;15.132;2023-09-30T01:35:56;11.30;99.90
20929;DHT22;21895;47.072;15.132;2023-09-30T01:38:22;11.30;99.90
20929;DHT22;21895;47.072;15.132;2023-09-30T01:40:52;11.30;99.90
20929;DHT22;21895;47.072;15.132;2023-09-30T01:43:20;11.30;99.90
20929;DHT22;21895;47.072;15.132;2023-09-30T01:45:46;11.30;99.90
20929;DHT22;21895;47.072;15.132;2023-09-30T01:48:13;11.40;99.90
20929;DHT22;21895;47.072;15.132;2023-09-30T01:50:40;11.40;99.90
20929;DHT22;21895;47.072;15.132;2023-09-30T01:53:07;11.50;99.90
20929;DHT22;21895;47.072;15.132;2023-09-30T01:55:34;11.50;99.90
20929;DHT22;21895;47.072;15.132;2023-09-30T01:58:02;11.50;99.90
20929;DHT22;21895;47.072;15.132;2023-09-30T02:00:29;11.60;99.90
20929;DHT22;21895;47.072;15.132;2023-09-30T02:02:56;11.50;99.90
20929;DHT22;21895;47.072;15.132;2023-09-30T02:05:23;11.50;99.90
20929;DHT22;21895;47.072;15.132;2023-09-30T02:07:51;11.40;99.90
20929;DHT22;21895;47.072;15.132;2023-09-30T02:10:18;11.40;99.90
20929;DHT22;21895;47.072;15.132;2023-09-30T02:12:46;11.50;99.90
20929;DHT22;21895;47.072;15.132;2023-09-30T02:15:14;11.50;99.90
20929;DHT22;21895;47.072;15.132;2023-09-30T02:17:40;11.60;99.90
20929;DHT22;21895;47.072;15.132;2023-09-30T02:20:12;11.60;99.90
20929;DHT22;21895;47.072;15.132;2023-09-30T02:22:42;11.50;99.90
20929;DHT22;21895;47.072;15.132;2023-09-30T02:25:10;11.40;99.90
20929;DHT22;21895;47.072;15.132;2023-09-30T02:27:40;11.50;99.90
20929;DHT22;21895;47.072;15.132;2023-09-30T02:30:08;11.50;99.90
20929;DHT22;21895;47.072;15.132;2023-09-30T02:32:38;11.50;99.90
20929;DHT22;21895;47.072;15.132;2023-09-30T02:35:07;11.60;99.90
20929;DHT22;21895;47.072;15.132;2023-09-30T02:37:34;11.60;99.90
20929;DHT22;21895;47.072;15.132;2023-09-30T02:40:05;11.70;99.90
20929;DHT22;21895;47.072;15.132;2023-09-30T02:42:38;11.80;99.90
20929;DHT22;21895;47.072;15.132;2023-09-30T02:45:06;11.80;99.90
20929;DHT22;21895;47.072;15.132;2023-09-30T02:47:37;11.90;99.90
20929;DHT22;21895;47.072;15.132;2023-09-30T02:50:06;12.00;99.90
20929;DHT22;21895;47.072;15.132;2023-09-30T02:52:34;12.00;99.90
20929;DHT22;21895;47.072;15.132;2023-09-30T02:55:02;12.20;99.90
20929;DHT22;21895;47.072;15.132;2023-09-30T02:57:29;12.20;99.90
20929;DHT22;21895;47.072;15.132;2023-09-30T02:59:57;12.30;99.90
20929;DHT22;21895;47.072;15.132;2023-09-30T03:02:26;12.40;99.90
20929;DHT22;21895;47.072;15.132;2023-09-30T03:04:52;12.50;99.90
20929;DHT22;21895;47.072;15.132;2023-09-30T03:07:24;12.60;99.90
20929;DHT22;21895;47.072;15.132;2023-09-30T03:09:50;12.60;99.90
20929;DHT22;21895;47.072;15.132;2023-09-30T03:12:19;12.70;99.90
20929;DHT22;21895;47.072;15.132;2023-09-30T03:14:46;12.70;99.90
20929;DHT22;21895;47.072;15.132;2023-09-30T03:17:12;12.60;99.90
20929;DHT22;21895;47.072;15.132;2023-09-30T03:19:39;12.70;99.90
20929;DHT22;21895;47.072;15.132;2023-09-30T03:22:06;12.80;99.90
20929;DHT22;21895;47.072;15.132;2023-09-30T03:24:38;12.90;99.90
20929;DHT22;21895;47.072;15.132;2023-09-30T03:27:05;12.90;99.90
20929;DHT22;21895;47.072;15.132;2023-09-30T03:29:34;13.00;99.90
20929;DHT22;21895;47.072;15.132;2023-09-30T03:32:02;13.00;99.90
20929;DHT22;21895;47.072;15.132;2023-09-30T03:34:29;13.00;99.90
20929;DHT22;21895;47.072;15.132;2023-09-30T03:36:55;13.00;99.90
20929;DHT22;21895;47.072;15.132;2023-09-30T03:39:25;13.00;99.90
20929;DHT22;21895;47.072;15.132;2023-09-30T03:41:56;13.10;99.90
20929;DHT22;21895;47.072;15.132;2023-09-30T03:44:25;13.10;99.90
20929;DHT22;21895;47.072;15.132;2023-09-30T03:46:52;13.20;99.90
20929;DHT22;21895;47.072;15.132;2023-09-30T03:49:19;13.10;99.90
20929;DHT22;21895;47.072;15.132;2023-09-30T03:51:46;13.10;99.90
20929;DHT22;21895;47.072;15.132;2023-09-30T03:54:12;13.10;99.90
20929;DHT22;21895;47.072;15.132;2023-09-30T03:56:39;13.20;99.90
20929;DHT22;21895;47.072;15.132;2023-09-30T03:59:07;13.30;99.90
20929;DHT22;21895;47.072;15.132;2023-09-30T04:01:34;13.30;99.90
20929;DHT22;21895;47.072;15.132;2023-09-30T04:04:01;13.30;99.90
20929;DHT22;21895;47.072;15.132;2023-09-30T04:06:28;13.40;99.90
20929;DHT22;21895;47.072;15.132;2023-09-30T04:08:55;13.40;99.90
20929;DHT22;21895;47.072;15.132;2023-09-30T04:11:22;13.40;99.90
20929;DHT22;21895;47.072;15.132;2023-09-30T04:13:50;13.40;99.90
20929;DHT22;21895;47.072;15.132;2023-09-30T04:16:16;13.30;99.90
20929;DHT22;21895;47.072;15.132;2023-09-30T04:18:45;13.30;99.90
20929;DHT22;21895;47.072;15.132;2023-09-30T04:21:14;13.40;99.90
20929;DHT22;21895;47.072;15.132;2023-09-30T04:23:40;13.50;99.90
20929;DHT22;21895;47.072;15.132;2023-09-30T04:26:07;13.60;99.90
20929;DHT22;21895;47.072;15.132;2023-09-30T04:28:35;13.70;99.90
20929;DHT22;21895;47.072;15.132;2023-09-30T04:31:02;13.80;99.90
20929;DHT22;21895;47.072;15.132;2023-09-30T04:33:29;13.80;99.90
20929;DHT22;21895;47.072;15.132;2023-09-30T04:35:56;13.80;99.90
20929;DHT22;21895;47.072;15.132;2023-09-30T04:38:23;13.70;99.90
20929;DHT22;21895;47.072;15.132;2023-09-30T04:40:50;13.80;99.90
20929;DHT22;21895;47.072;15.132;2023-09-30T04:43:17;13.70;99.90
20929;DHT22;21895;47.072;15.132;2023-09-30T04:45:44;13.70;99.90
20929;DHT22;21895;47.072;15.132;2023-09-30T04:48:11;13.80;99.90
20929;DHT22;21895;47.072;15.132;2023-09-30T04:50:39;14.00;99.90
20929;DHT22;21895;47.072;15.132;2023-09-30T04:53:06;14.00;99.90
20929;DHT22;21895;47.072;15.132;2023-09-30T04:55:33;14.00;99.90
20929;DHT22;21895;47.072;15.132;2023-09-30T04:58:00;14.00;99.90
20929;DHT22;21895;47.072;15.132;2023-09-30T05:00:27;13.90;99.90
20929;DHT22;21895;47.072;15.132;2023-09-30T05:02:57;13.90;99.90
20929;DHT22;21895;47.072;15.132;2023-09-30T05:05:25;14.00;99.90
20929;DHT22;21895;47.072;15.132;2023-09-30T05:07:52;14.00;99.90
20929;DHT22;21895;47.072;15.132;2023-09-30T05:10:18;13.90;99.90
20929;DHT22;21895;47.072;15.132;2023-09-30T05:12:45;13.90;99.90
20929;DHT22;21895;47.072;15.132;2023-09-30T05:15:15;14.00;99.90
20929;DHT22;21895;47.072;15.132;2023-09-30T05:17:42;14.00;99.90
20929;DHT22;21895;47.072;15.132;2023-09-30T05:20:13;13.90;99.90
20929;DHT22;21895;47.072;15.132;2023-09-30T05:22:43;14.00;99.90
20929;DHT22;21895;47.072;15.132;2023-09-30T05:25:15;14.00;99.90
20929;DHT22;21895;47.072;15.132;2023-09-30T05:27:43;14.00;99.90
20929;DHT22;21895;47.072;15.132;2023-09-30T05:30:11;14.10;99.90
20929;DHT22;21895;47.072;15.132;2023-09-30T05:32:38;14.10;99.90
20929;DHT22;21895;47.072;15.132;2023-09-30T05:35:06;14.10;99.90
20929;DHT22;21895;47.072;15.132;2023-09-30T05:37:40;14.10;99.90
20929;DHT22;21895;47.072;15.132;2023-09-30T05:40:07;14.10;99.90
20929;DHT22;21895;47.072;15.132;2023-09-30T05:42:48;14.10;99.90
20929;DHT22;21895;47.072;15.132;2023-09-30T05:45:16;14.20;99.90
20929;DHT22;21895;47.072;15.132;2023-09-30T05:47:42;14.20;99.90
20929;DHT22;21895;47.072;15.132;2023-09-30T05:50:10;14.20;99.90
20929;DHT22;21895;47.072;15.132;2023-09-30T05:52:42;14.30;99.90
20929;DHT22;21895;47.072;15.132;2023-09-30T05:55:10;14.30;99.90
20929;DHT22;21895;47.072;15.132;2023-09-30T05:57:37;14.40;99.90
20929;DHT22;21895;47.072;15.132;2023-09-30T06:00:04;14.40;99.90
20929;DHT22;21895;47.072;15.132;2023-09-30T06:02:54;14.50;99.90
20929;DHT22;21895;47.072;15.132;2023-09-30T06:05:21;14.50;99.90
20929;DHT22;21895;47.072;15.132;2023-09-30T06:07:56;14.60;99.90
20929;DHT22;21895;47.072;15.132;2023-09-30T06:10:23;14.60;99.90
20929;DHT22;21895;47.072;15.132;2023-09-30T06:12:52;14.60;99.90
20929;DHT22;21895;47.072;15.132;2023-09-30T06:15:26;14.70;99.90
20929;DHT22;21895;47.072;15.132;2023-09-30T06:17:57;14.80;99.90
20929;DHT22;21895;47.072;15.132;2023-09-30T06:20:26;14.80;99.90
20929;DHT22;21895;47.072;15.132;2023-09-30T06:22:54;14.80;99.90
20929;DHT22;21895;47.072;15.132;2023-09-30T06:25:21;14.80;99.90
20929;DHT22;21895;47.072;15.132;2023-09-30T06:27:50;14.80;99.90
20929;DHT22;21895;47.072;15.132;2023-09-30T06:30:17;14.90;99.90
20929;DHT22;21895;47.072;15.132;2023-09-30T06:32:47;14.90;99.90
20929;DHT22;21895;47.072;15.132;2023-09-30T06:35:14;14.80;99.90
20929;DHT22;21895;47.072;15.132;2023-09-30T06:37:41;14.80;99.90
20929;DHT22;21895;47.072;15.132;2023-09-30T06:40:09;15.00;99.90
20929;DHT22;21895;47.072;15.132;2023-09-30T06:42:38;14.90;99.90
20929;DHT22;21895;47.072;15.132;2023-09-30T06:45:08;15.00;99.90
20929;DHT22;21895;47.072;15.132;2023-09-30T06:47:36;15.00;99.90
20929;DHT22;21895;47.072;15.132;2023-09-30T06:50:08;15.10;99.90
20929;DHT22;21895;47.072;15.132;2023-09-30T06:52:41;15.20;99.90
20929;DHT22;21895;47.072;15.132;2023-09-30T06:55:09;15.30;99.90
20929;DHT22;21895;47.072;15.132;2023-09-30T06:57:37;15.40;99.90
20929;DHT22;21895;47.072;15.132;2023-09-30T07:00:10;15.50;99.90
20929;DHT22;21895;47.072;15.132;2023-09-30T07:02:39;15.60;99.90
20929;DHT22;21895;47.072;15.132;2023-09-30T07:05:11;15.70;99.90
20929;DHT22;21895;47.072;15.132;2023-09-30T07:07:39;15.80;99.90
20929;DHT22;21895;47.072;15.132;2023-09-30T07:10:09;15.90;99.90
20929;DHT22;21895;47.072;15.132;2023-09-30T07:12:36;16.00;99.90
20929;DHT22;21895;47.072;15.132;2023-09-30T07:15:04;16.10;99.90
20929;DHT22;21895;47.072;15.132;2023-09-30T07:17:32;16.30;99.90
20929;DHT22;21895;47.072;15.132;2023-09-30T07:20:03;16.40;99.90
20929;DHT22;21895;47.072;15.132;2023-09-30T07:22:31;16.30;99.90
20929;DHT22;21895;47.072;15.132;2023-09-30T07:25:15;16.40;99.90
20929;DHT22;21895;47.072;15.132;2023-09-30T07:27:43;16.40;99.90
20929;DHT22;21895;47.072;15.132;2023-09-30T07:30:12;16.50;99.90
20929;DHT22;21895;47.072;15.132;2023-09-30T07:32:44;16.70;99.90
20929;DHT22;21895;47.072;15.132;2023-09-30T07:35:12;16.60;99.90
20929;DHT22;21895;47.072;15.132;2023-09-30T07:37:41;16.70;99.90
20929;DHT22;21895;47.072;15.132;2023-09-30T07:40:08;16.70;99.90
20929;DHT22;21895;47.072;15.132;2023-09-30T07:42:36;16.80;99.90
20929;DHT22;21895;47.072;15.132;2023-09-30T07:45:03;16.90;99.90
20929;DHT22;21895;47.072;15.132;2023-09-30T07:47:31;16.90;99.90
20929;DHT22;21895;47.072;15.132;2023-09-30T07:50:03;17.10;99.90
20929;DHT22;21895;47.072;15.132;2023-09-30T07:52:36;17.30;99.90
20929;DHT22;21895;47.072;15.132;2023-09-30T07:55:02;17.40;99.90
20929;DHT22;21895;47.072;15.132;2023-09-30T07:57:31;17.60;99.90
20929;DHT22;21895;47.072;15.132;2023-09-30T07:59:59;17.60;99.90
20929;DHT22;21895;47.072;15.132;2023-09-30T08:02:28;17.70;99.90
20929;DHT22;21895;47.072;15.132;2023-09-30T08:04:59;17.80;99.90
20929;DHT22;21895;47.072;15.132;2023-09-30T08:07:26;17.80;99.90
20929;DHT22;21895;47.072;15.132;2023-09-30T08:09:53;17.80;99.90
20929;DHT22;21895;47.072;15.132;2023-09-30T08:12:20;17.90;99.90
20929;DHT22;21895;47.072;15.132;2023-09-30T08:14:47;18.00;99.90
20929;DHT22;21895;47.072;15.132;2023-09-30T08:17:15;18.00;99.90
20929;DHT22;21895;47.072;15.132;2023-09-30T08:19:42;18.10;99.90
20929;DHT22;21895;47.072;15.132;2023-09-30T08:22:08;18.10;99.90
20929;DHT22;21895;47.072;15.132;2023-09-30T08:24:35;18.50;99.90
20929;DHT22;21895;47.072;15.132;2023-09-30T08:27:02;18.90;99.90
20929;DHT22;21895;47.072;15.132;2023-09-30T08:29:28;19.30;99.90
20929;DHT22;21895;47.072;15.132;2023-09-30T08:31:55;19.50;99.90
20929;DHT22;21895;47.072;15.132;2023-09-30T08:34:22;19.60;99.90
20929;DHT22;21895;47.072;15.132;2023-09-30T08:36:50;20.00;99.90
20929;DHT22;21895;47.072;15.132;2023-09-30T08:39:16;20.50;99.90
20929;DHT22;21895;47.072;15.132;2023-09-30T08:41:43;20.70;99.90
20929;DHT22;21895;47.072;15.132;2023-09-30T08:44:11;20.90;99.90
20929;DHT22;21895;47.072;15.132;2023-09-30T08:46:39;21.00;99.90
20929;DHT22;21895;47.072;15.132;2023-09-30T08:49:06;20.90;99.90
20929;DHT22;21895;47.072;15.132;2023-09-30T08:51:35;20.90;99.90
20929;DHT22;21895;47.072;15.132;2023-09-30T08:54:02;20.70;99.90
20929;DHT22;21895;47.072;15.132;2023-09-30T08:56:31;20.40;99.90
20929;DHT22;21895;47.072;15.132;2023-09-30T08:59:02;20.10;99.90
20929;DHT22;21895;47.072;15.132;2023-09-30T09:01:30;20.00;99.90
20929;DHT22;21895;47.072;15.132;2023-09-30T09:03:57;19.90;99.90
20929;DHT22;21895;47.072;15.132;2023-09-30T09:06:25;20.10;99.90
20929;DHT22;21895;47.072;15.132;2023-09-30T09:08:53;20.40;99.90
20929;DHT22;21895;47.072;15.132;2023-09-30T09:11:20;20.60;99.90
20929;DHT22;21895;47.072;15.132;2023-09-30T09:13:54;20.70;99.90
20929;DHT22;21895;47.072;15.132;2023-09-30T09:16:26;20.80;99.90
20929;DHT22;21895;47.072;15.132;2023-09-30T09:18:52;20.90;99.90
20929;DHT22;21895;47.072;15.132;2023-09-30T09:21:21;20.90;99.90
20929;DHT22;21895;47.072;15.132;2023-09-30T09:23:53;21.00;99.90
20929;DHT22;21895;47.072;15.132;2023-09-30T09:26:25;21.10;99.90
20929;DHT22;21895;47.072;15.132;2023-09-30T09:29:00;21.30;99.90
20929;DHT22;21895;47.072;15.132;2023-09-30T09:31:34;21.60;99.90
20929;DHT22;21895;47.072;15.132;2023-09-30T09:34:02;22.00;99.90
20929;DHT22;21895;47.072;15.132;2023-09-30T09:36:41;22.20;99.90
20929;DHT22;21895;47.072;15.132;2023-09-30T09:39:10;22.60;99.90
20929;DHT22;21895;47.072;15.132;2023-09-30T09:41:50;22.70;99.90
20929;DHT22;21895;47.072;15.132;2023-09-30T09:44:19;22.70;99.90
20929;DHT22;21895;47.072;15.132;2023-09-30T09:46:51;22.70;99.90
20929;DHT22;21895;47.072;15.132;2023-09-30T09:49:18;22.80;99.90
20929;DHT22;21895;47.072;15.132;2023-09-30T09:51:46;22.80;99.90
20929;DHT22;21895;47.072;15.132;2023-09-30T09:54:15;22.90;99.90
20929;DHT22;21895;47.072;15.132;2023-09-30T09:56:44;22.90;99.90
20929;DHT22;21895;47.072;15.132;2023-09-30T09:59:14;22.90;99.90
20929;DHT22;21895;47.072;15.132;2023-09-30T10:01:41;22.90;99.90
20929;DHT22;21895;47.072;15.132;2023-09-30T10:04:10;23.00;99.90
20929;DHT22;21895;47.072;15.132;2023-09-30T10:06:37;23.20;99.90
20929;DHT22;21895;47.072;15.132;2023-09-30T10:09:11;23.40;99.90
20929;DHT22;21895;47.072;15.132;2023-09-30T10:11:40;23.50;99.90
20929;DHT22;21895;47.072;15.132;2023-09-30T10:14:07;23.60;99.90
20929;DHT22;21895;47.072;15.132;2023-09-30T10:16:58;23.60;99.90
20929;DHT22;21895;47.072;15.132;2023-09-30T10:19:25;23.70;99.90
20929;DHT22;21895;47.072;15.132;2023-09-30T10:22:21;23.80;99.90
20929;DHT22;21895;47.072;15.132;2023-09-30T10:24:50;23.70;99.80
20929;DHT22;21895;47.072;15.132;2023-09-30T10:27:37;23.80;99.90
20929;DHT22;21895;47.072;15.132;2023-09-30T10:30:07;24.00;99.90
20929;DHT22;21895;47.072;15.132;2023-09-30T10:34:58;24.00;99.90
20929;DHT22;21895;47.072;15.132;2023-09-30T10:37:25;23.90;99.50
20929;DHT22;21895;47.072;15.132;2023-09-30T10:39:58;24.10;99.10
20929;DHT22;21895;47.072;15.132;2023-09-30T10:42:48;24.20;98.90
20929;DHT22;21895;47.072;15.132;2023-09-30T10:47:45;24.20;98.40
20929;DHT22;21895;47.072;15.132;2023-09-30T10:50:49;24.40;98.80
20929;DHT22;21895;47.072;15.132;2023-09-30T10:53:18;24.50;98.30
20929;DHT22;21895;47.072;15.132;2023-09-30T10:55:46;24.40;97.70
20929;DHT22;21895;47.072;15.132;2023-09-30T10:58:13;24.50;98.00
20929;DHT22;21895;47.072;15.132;2023-09-30T11:00:42;24.80;97.20
20929;DHT22;21895;47.072;15.132;2023-09-30T11:03:22;24.90;96.90
20929;DHT22;21895;47.072;15.132;2023-09-30T11:05:49;24.80;97.10
20929;DHT22;21895;47.072;15.132;2023-09-30T11:08:38;24.60;98.00
20929;DHT22;21895;47.072;15.132;2023-09-30T11:11:11;24.50;97.50
20929;DHT22;21895;47.072;15.132;2023-09-30T11:13:37;24.50;97.40
20929;DHT22;21895;47.072;15.132;2023-09-30T11:16:05;24.40;97.80
20929;DHT22;21895;47.072;15.132;2023-09-30T11:18:32;24.20;97.80
20929;DHT22;21895;47.072;15.132;2023-09-30T11:21:10;24.10;99.10
20929;DHT22;21895;47.072;15.132;2023-09-30T11:23:40;24.10;99.00
20929;DHT22;21895;47.072;15.132;2023-09-30T11:26:07;24.10;99.30
20929;DHT22;21895;47.072;15.132;2023-09-30T11:28:39;24.30;98.20
20929;DHT22;21895;47.072;15.132;2023-09-30T11:31:11;24.30;98.20
20929;DHT22;21895;47.072;15.132;2023-09-30T11:33:54;24.30;98.30
20929;DHT22;21895;47.072;15.132;2023-09-30T11:36:23;24.10;98.40
20929;DHT22;21895;47.072;15.132;2023-09-30T11:38:51;23.90;99.20
20929;DHT22;21895;47.072;15.132;2023-09-30T11:41:20;23.80;99.00
20929;DHT22;21895;47.072;15.132;2023-09-30T11:44:08;23.70;98.70
20929;DHT22;21895;47.072;15.132;2023-09-30T11:47:00;23.70;98.80
20929;DHT22;21895;47.072;15.132;2023-09-30T11:49:35;23.80;99.10
20929;DHT22;21895;47.072;15.132;2023-09-30T11:52:11;24.10;98.50
20929;DHT22;21895;47.072;15.132;2023-09-30T11:54:44;24.50;98.00
20929;DHT22;21895;47.072;15.132;2023-09-30T11:57:15;24.50;98.00
20929;DHT22;21895;47.072;15.132;2023-09-30T11:59:44;24.60;97.60
20929;DHT22;21895;47.072;15.132;2023-09-30T12:02:12;24.70;98.10
20929;DHT22;21895;47.072;15.132;2023-09-30T12:04:42;24.70;97.60
20929;DHT22;21895;47.072;15.132;2023-09-30T12:07:11;24.80;97.50
20929;DHT22;21895;47.072;15.132;2023-09-30T12:09:38;24.90;97.10
20929;DHT22;21895;47.072;15.132;2023-09-30T12:12:06;24.80;96.80
20929;DHT22;21895;47.072;15.132;2023-09-30T12:14:35;24.90;96.60
20929;DHT22;21895;47.072;15.132;2023-09-30T12:17:02;24.70;97.10
20929;DHT22;21895;47.072;15.132;2023-09-30T12:19:29;24.60;97.20
20929;DHT22;21895;47.072;15.132;2023-09-30T12:21:55;24.50;97.10
20929;DHT22;21895;47.072;15.132;2023-09-30T12:24:22;24.40;97.10
20929;DHT22;21895;47.072;15.132;2023-09-30T12:26:51;24.30;97.10
20929;DHT22;21895;47.072;15.132;2023-09-30T12:29:19;24.40;96.80
20929;DHT22;21895;47.072;15.132;2023-09-30T12:31:49;24.30;97.60
20929;DHT22;21895;47.072;15.132;2023-09-30T12:34:21;24.30;97.70
20929;DHT22;21895;47.072;15.132;2023-09-30T12:36:51;24.10;98.10
20929;DHT22;21895;47.072;15.132;2023-09-30T12:39:18;24.20;97.50
20929;DHT22;21895;47.072;15.132;2023-09-30T12:41:49;24.30;97.20
20929;DHT22;21895;47.072;15.132;2023-09-30T12:44:16;24.20;97.40
20929;DHT22;21895;47.072;15.132;2023-09-30T12:46:43;24.20;97.40
20929;DHT22;21895;47.072;15.132;2023-09-30T12:49:10;24.20;97.50
20929;DHT22;21895;47.072;15.132;2023-09-30T12:51:37;24.10;97.20
20929;DHT22;21895;47.072;15.132;2023-09-30T12:54:03;24.10;98.00
20929;DHT22;21895;47.072;15.132;2023-09-30T12:56:30;24.20;97.20
20929;DHT22;21895;47.072;15.132;2023-09-30T12:58:58;24.10;98.00
20929;DHT22;21895;47.072;15.132;2023-09-30T13:01:25;24.10;97.60
20929;DHT22;21895;47.072;15.132;2023-09-30T13:03:54;23.90;97.90
20929;DHT22;21895;47.072;15.132;2023-09-30T13:06:21;23.90;98.00
20929;DHT22;21895;47.072;15.132;2023-09-30T13:08:47;23.70;98.10
20929;DHT22;21895;47.072;15.132;2023-09-30T13:11:14;23.70;98.20
20929;DHT22;21895;47.072;15.132;2023-09-30T13:13:41;23.70;98.30
20929;DHT22;21895;47.072;15.132;2023-09-30T13:16:10;23.90;98.30
20929;DHT22;21895;47.072;15.132;2023-09-30T13:18:37;23.90;97.60
20929;DHT22;21895;47.072;15.132;2023-09-30T13:21:04;23.90;97.70
20929;DHT22;21895;47.072;15.132;2023-09-30T13:23:32;23.90;97.60
20929;DHT22;21895;47.072;15.132;2023-09-30T13:25:59;23.90;98.10
20929;DHT22;21895;47.072;15.132;2023-09-30T13:28:27;23.90;98.30
20929;DHT22;21895;47.072;15.132;2023-09-30T13:30:54;23.90;98.00
20929;DHT22;21895;47.072;15.132;2023-09-30T13:33:20;24.00;97.50
20929;DHT22;21895;47.072;15.132;2023-09-30T13:35:47;24.10;96.90
20929;DHT22;21895;47.072;15.132;2023-09-30T13:38:13;24.30;97.20
20929;DHT22;21895;47.072;15.132;2023-09-30T13:40:42;24.40;97.30
20929;DHT22;21895;47.072;15.132;2023-09-30T13:43:08;24.40;97.40
20929;DHT22;21895;47.072;15.132;2023-09-30T13:45:35;24.40;97.40
20929;DHT22;21895;47.072;15.132;2023-09-30T13:48:03;24.30;97.50
20929;DHT22;21895;47.072;15.132;2023-09-30T13:50:30;24.10;97.70
20929;DHT22;21895;47.072;15.132;2023-09-30T13:52:57;24.10;98.00
20929;DHT22;21895;47.072;15.132;2023-09-30T13:55:26;24.00;97.60
20929;DHT22;21895;47.072;15.132;2023-09-30T13:57:53;24.00;97.40
20929;DHT22;21895;47.072;15.132;2023-09-30T14:00:20;23.80;97.70
20929;DHT22;21895;47.072;15.132;2023-09-30T14:02:47;23.70;98.60
20929;DHT22;21895;47.072;15.132;2023-09-30T14:05:13;23.60;99.00
20929;DHT22;21895;47.072;15.132;2023-09-30T14:07:40;23.50;99.50
20929;DHT22;21895;47.072;15.132;2023-09-30T14:10:07;23.40;99.80
20929;DHT22;21895;47.072;15.132;2023-09-30T14:12:37;23.40;99.90
20929;DHT22;21895;47.072;15.132;2023-09-30T14:15:06;23.40;99.90
20929;DHT22;21895;47.072;15.132;2023-09-30T14:17:34;23.40;99.90
20929;DHT22;21895;47.072;15.132;2023-09-30T14:20:03;23.40;99.90
20929;DHT22;21895;47.072;15.132;2023-09-30T14:22:31;23.40;99.90
20929;DHT22;21895;47.072;15.132;2023-09-30T14:24:57;23.40;99.80
20929;DHT22;21895;47.072;15.132;2023-09-30T14:27:24;23.30;99.30
20929;DHT22;21895;47.072;15.132;2023-09-30T14:29:52;23.30;99.50
20929;DHT22;21895;47.072;15.132;2023-09-30T14:32:18;23.30;99.30
20929;DHT22;21895;47.072;15.132;2023-09-30T14:34:45;23.30;99.90
20929;DHT22;21895;47.072;15.132;2023-09-30T14:37:12;23.20;99.90
20929;DHT22;21895;47.072;15.132;2023-09-30T14:39:39;23.20;99.90
20929;DHT22;21895;47.072;15.132;2023-09-30T14:42:05;23.20;99.90
20929;DHT22;21895;47.072;15.132;2023-09-30T14:44:32;23.30;99.90
20929;DHT22;21895;47.072;15.132;2023-09-30T14:46:59;23.20;99.90
20929;DHT22;21895;47.072;15.132;2023-09-30T14:49:25;23.10;99.90
20929;DHT22;21895;47.072;15.132;2023-09-30T14:51:52;23.20;99.90
20929;DHT22;21895;47.072;15.132;2023-09-30T14:54:19;23.20;99.90
20929;DHT22;21895;47.072;15.132;2023-09-30T14:56:45;23.20;99.90
20929;DHT22;21895;47.072;15.132;2023-09-30T14:59:12;23.20;99.90
20929;DHT22;21895;47.072;15.132;2023-09-30T15:01:38;23.20;99.90
20929;DHT22;21895;47.072;15.132;2023-09-30T15:04:05;23.20;99.90
20929;DHT22;21895;47.072;15.132;2023-09-30T15:06:36;23.10;99.90
20929;DHT22;21895;47.072;15.132;2023-09-30T15:09:02;23.10;99.90
20929;DHT22;21895;47.072;15.132;2023-09-30T15:11:30;23.10;99.90
20929;DHT22;21895;47.072;15.132;2023-09-30T15:13:56;23.10;99.90
20929;DHT22;21895;47.072;15.132;2023-09-30T15:16:23;22.90;99.90
20929;DHT22;21895;47.072;15.132;2023-09-30T15:18:51;22.80;99.90
20929;DHT22;21895;47.072;15.132;2023-09-30T15:21:17;22.80;99.90
20929;DHT22;21895;47.072;15.132;2023-09-30T15:23:45;22.70;99.90
20929;DHT22;21895;47.072;15.132;2023-09-30T15:26:12;22.70;99.90
20929;DHT22;21895;47.072;15.132;2023-09-30T15:28:38;22.60;99.90
20929;DHT22;21895;47.072;15.132;2023-09-30T15:31:05;22.60;99.90